Time;durP1;ratioP1;P1;durP2;ratioP2;P2;SDS_P1;SDS_P2;PMS_P1;PMS_P2;Temp;Humidity;BMP_temperature;BMP_pressure;BME280_temperature;BME280_humidity;BME280_pressure;Samples;Min_cycle;Max_cycle;Signal;HPM_P1;HPM_P2
2024/04/12 00:01:42;;;;;;;7.45;5.85;;;15.40;99.90;;;;;;5391008;26;20349;-88
2024/04/12 00:04:08;;;;;;;8.07;6.63;;;15.40;99.90;;;;;;5421333;26;20000;-88
2024/04/12 00:06:37;;;;;;;6.85;6.13;;;15.40;99.90;;;;;;5421860;26;20007;-88
2024/04/12 00:09:09;;;;;;;6.85;6.13;;;15.50;99.90;;;;;;5419643;26;19987;-89
2024/04/12 00:11:38;;;;;;;8.80;6.53;;;15.50;99.90;;;;;;5419789;26;19995;-89
2024/04/12 00:14:05;;;;;;;7.07;6.38;;;15.40;99.90;;;;;;5419334;26;19996;-89
2024/04/12 00:16:37;;;;;;;7.28;6.38;;;15.40;99.90;;;;;;5419885;26;20003;-91
2024/04/12 00:19:12;;;;;;;7.95;6.40;;;15.40;99.90;;;;;;5419486;26;19999;-90
2024/04/12 00:21:41;;;;;;;8.13;7.32;;;15.40;99.90;;;;;;5420941;26;19991;-88
2024/04/12 00:24:12;;;;;;;9.38;7.07;;;15.40;99.90;;;;;;5419230;26;20065;-90
2024/04/12 00:26:46;;;;;;;7.38;6.55;;;15.40;99.90;;;;;;5391001;26;20019;-89
2024/04/12 00:32:13;;;;;;;9.07;7.70;;;15.40;99.90;;;;;;5419264;26;19996;-89
2024/04/12 00:34:47;;;;;;;9.10;8.20;;;15.40;99.90;;;;;;5390828;26;19991;-89
2024/04/12 00:37:16;;;;;;;9.70;7.80;;;15.40;99.90;;;;;;5419386;26;19992;-90
2024/04/12 00:39:51;;;;;;;9.23;7.00;;;15.30;99.90;;;;;;5421225;26;20006;-89
2024/04/12 00:42:31;;;;;;;8.45;7.50;;;15.30;99.90;;;;;;5419989;26;20007;-89
2024/04/12 00:44:58;;;;;;;9.55;7.80;;;15.40;99.90;;;;;;5420218;26;19995;-89
2024/04/12 00:47:27;;;;;;;9.10;8.20;;;15.40;99.90;;;;;;5418790;26;19988;-89
2024/04/12 00:49:55;;;;;;;9.27;8.20;;;15.40;99.90;;;;;;5419826;26;20007;-88
2024/04/12 00:52:35;;;;;;;9.18;7.93;;;15.40;99.90;;;;;;5426183;26;20057;-89
2024/04/12 00:55:08;;;;;;;8.70;7.80;;;15.40;99.90;;;;;;5441686;26;19995;-89
2024/04/12 00:57:41;;;;;;;10.07;8.60;;;15.40;99.90;;;;;;5442181;26;19999;-88
2024/04/12 01:00:11;;;;;;;10.05;8.73;;;15.40;99.90;;;;;;5442081;26;20006;-89
2024/04/12 01:02:42;;;;;;;10.00;8.85;;;15.40;99.90;;;;;;5439567;26;19998;-86
2024/04/12 01:05:14;;;;;;;8.82;7.97;;;15.40;99.90;;;;;;5425344;26;19999;-90
2024/04/12 01:07:49;;;;;;;10.50;9.30;;;15.40;99.90;;;;;;5421013;26;20002;-88
2024/04/12 01:10:24;;;;;;;9.98;8.52;;;15.40;99.90;;;;;;5421198;26;20002;-90
2024/04/12 01:12:55;;;;;;;9.98;8.98;;;15.30;99.90;;;;;;5418983;26;20031;-89
2024/04/12 01:15:25;;;;;;;10.80;9.70;;;15.40;99.90;;;;;;5418741;26;20423;-90
2024/04/12 01:17:52;;;;;;;9.55;8.55;;;15.40;99.90;;;;;;5418982;26;19993;-89
2024/04/12 01:20:25;;;;;;;11.40;9.30;;;15.40;99.90;;;;;;5418727;26;20443;-89
2024/04/12 01:22:57;;;;;;;10.05;9.02;;;15.40;99.90;;;;;;5418487;26;20004;-89
2024/04/12 01:25:28;;;;;;;11.38;9.95;;;15.40;99.90;;;;;;5418457;26;20076;-89
2024/04/12 01:27:55;;;;;;;;;;;15.40;99.90;;;;;;5420386;26;19996;-89
2024/04/12 01:30:22;;;;;;;10.75;9.65;;;15.40;99.90;;;;;;5418553;26;19925;-89
2024/04/12 01:32:50;;;;;;;12.52;10.82;;;15.30;99.90;;;;;;5420009;26;20455;-90
2024/04/12 01:35:22;;;;;;;12.55;11.25;;;15.30;99.90;;;;;;5389299;26;20070;-90
2024/04/12 01:37:57;;;;;;;13.40;11.23;;;15.30;99.90;;;;;;5419659;26;19995;-90
2024/04/12 01:40:23;;;;;;;11.70;10.50;;;15.20;99.90;;;;;;5419940;26;20039;-89
2024/04/12 01:42:49;;;;;;;14.38;11.52;;;15.20;99.90;;;;;;5418398;26;19996;-89
2024/04/12 01:45:14;;;;;;;12.07;10.88;;;15.20;99.90;;;;;;5418254;26;20003;-89
2024/04/12 01:47:50;;;;;;;12.95;11.65;;;15.20;99.90;;;;;;5418549;26;20014;-89
2024/04/12 01:50:24;;;;;;;13.27;11.88;;;15.20;99.90;;;;;;5420465;26;20003;-88
2024/04/12 01:53:15;;;;;;;13.27;11.88;;;15.20;99.90;;;;;;5418680;26;20427;-89
2024/04/12 01:55:41;;;;;;;13.05;11.70;;;15.20;99.90;;;;;;5419425;26;20307;-88
2024/04/12 01:58:07;;;;;;;13.33;12.03;;;15.20;99.90;;;;;;5418332;26;20434;-89
2024/04/12 02:00:35;;;;;;;13.05;11.75;;;15.20;99.90;;;;;;5418770;26;19996;-89
2024/04/12 02:03:02;;;;;;;14.07;11.88;;;15.20;99.90;;;;;;5419332;26;20068;-88
2024/04/12 02:05:36;;;;;;;13.35;11.95;;;15.10;99.90;;;;;;5418406;26;19995;-89
2024/04/12 02:08:21;;;;;;;13.70;12.20;;;15.10;99.90;;;;;;5418357;26;20001;-89
2024/04/12 02:10:50;;;;;;;14.05;12.55;;;15.10;99.90;;;;;;5419047;26;20002;-89
2024/04/12 02:13:22;;;;;;;15.13;13.07;;;15.10;99.90;;;;;;5418471;26;20006;-88
2024/04/12 02:15:53;;;;;;;13.77;12.38;;;15.10;99.90;;;;;;5420380;26;19999;-90
2024/04/12 02:18:20;;;;;;;13.95;12.30;;;15.10;99.90;;;;;;5419722;26;20006;-91
2024/04/12 02:20:52;;;;;;;13.50;12.10;;;15.10;99.90;;;;;;5388986;26;20045;-89
2024/04/12 02:23:21;;;;;;;13.50;12.10;;;15.00;99.90;;;;;;5418413;26;19991;-90
2024/04/12 02:25:49;;;;;;;11.73;10.55;;;15.00;99.90;;;;;;5419791;26;20007;-91
2024/04/12 02:28:18;;;;;;;13.75;12.35;;;15.00;99.90;;;;;;5419658;26;20064;-90
2024/04/12 02:30:55;;;;;;;12.07;10.85;;;15.00;99.90;;;;;;5419735;26;19992;-90
2024/04/12 02:33:30;;;;;;;11.02;9.93;;;15.00;99.90;;;;;;5427087;26;19996;-89
2024/04/12 02:36:10;;;;;;;10.85;9.85;;;15.00;99.90;;;;;;5440291;26;19979;-88
2024/04/12 02:38:41;;;;;;;10.48;9.48;;;14.90;99.90;;;;;;5440484;26;20005;-89
2024/04/12 02:41:13;;;;;;;10.77;9.68;;;14.90;99.90;;;;;;5440035;26;19988;-85
2024/04/12 02:43:49;;;;;;;10.25;9.25;;;14.90;99.90;;;;;;5428735;26;20031;-89
2024/04/12 02:46:14;;;;;;;11.00;9.80;;;15.00;99.90;;;;;;5417651;26;20005;-88
2024/04/12 02:48:46;;;;;;;10.82;9.75;;;15.00;99.90;;;;;;5417245;26;20431;-90
2024/04/12 02:51:14;;;;;;;11.30;10.20;;;15.00;99.90;;;;;;5417387;26;19987;-90
2024/04/12 02:54:04;;;;;;;11.25;10.05;;;15.00;99.90;;;;;;5416666;26;20454;-89
2024/04/12 02:56:33;;;;;;;10.98;9.88;;;15.00;99.90;;;;;;5417602;26;19991;-89
2024/04/12 02:58:59;;;;;;;10.73;9.63;;;15.00;99.90;;;;;;5416746;26;19995;-89
2024/04/12 03:01:26;;;;;;;12.75;11.45;;;15.10;99.90;;;;;;5387812;26;20065;-88
2024/04/12 03:04:03;;;;;;;11.68;10.55;;;15.00;99.90;;;;;;5416884;26;20471;-89
2024/04/12 03:06:32;;;;;;;11.82;10.63;;;15.10;99.90;;;;;;5418470;26;20076;-90
2024/04/12 03:09:01;;;;;;;12.60;11.30;;;15.00;99.90;;;;;;5418041;26;19995;-90
2024/04/12 03:11:34;;;;;;;12.15;10.85;;;15.00;99.90;;;;;;5418777;26;20421;-89
2024/04/12 03:14:12;;;;;;;11.27;9.90;;;15.00;99.90;;;;;;5392455;26;20312;-89
2024/04/12 03:16:46;;;;;;;10.98;9.90;;;15.00;99.90;;;;;;5391933;26;19991;-90
2024/04/12 03:19:14;;;;;;;12.57;10.30;;;15.00;99.90;;;;;;5420248;26;20385;-91
2024/04/12 03:21:40;;;;;;;9.88;8.93;;;15.00;99.90;;;;;;5419763;26;19996;-90
2024/04/12 03:24:08;;;;;;;10.38;9.27;;;15.10;99.90;;;;;;5420216;26;20006;-89
2024/04/12 03:26:36;;;;;;;9.93;9.02;;;15.10;99.90;;;;;;5420495;26;20007;-88
2024/04/12 03:29:08;;;;;;;10.32;9.32;;;15.10;99.90;;;;;;5391210;26;20016;-90
2024/04/12 03:31:41;;;;;;;9.43;8.52;;;15.10;99.90;;;;;;5392383;26;19995;-91
2024/04/12 03:34:07;;;;;;;9.15;8.25;;;15.10;99.90;;;;;;5420222;26;19999;-90
2024/04/12 03:41:50;;;;;;;8.23;7.43;;;15.10;99.90;;;;;;5421562;26;20304;-90
2024/04/12 03:44:19;;;;;;;9.00;7.53;;;15.10;99.90;;;;;;5420547;26;19991;-89
2024/04/12 03:46:49;;;;;;;8.60;7.80;;;15.00;99.90;;;;;;5420491;26;19996;-89
2024/04/12 03:49:20;;;;;;;8.35;7.55;;;15.00;99.90;;;;;;5421559;26;20439;-90
2024/04/12 03:51:50;;;;;;;8.07;7.28;;;15.10;99.90;;;;;;5391676;26;19999;-90
2024/04/12 03:54:21;;;;;;;8.27;7.47;;;15.10;99.90;;;;;;5421562;26;19995;-89
2024/04/12 03:56:56;;;;;;;7.45;6.75;;;15.00;99.90;;;;;;5420667;26;20078;-90
2024/04/12 03:59:27;;;;;;;8.20;6.97;;;15.00;99.90;;;;;;5420670;26;19992;-89
2024/04/12 04:01:56;;;;;;;7.53;6.82;;;15.10;99.90;;;;;;5422282;26;20340;-89
2024/04/12 04:04:34;;;;;;;7.60;6.75;;;15.10;99.90;;;;;;5422529;26;20419;-89
2024/04/12 04:07:03;;;;;;;7.97;7.18;;;15.10;99.90;;;;;;5421171;26;20020;-87
2024/04/12 04:09:28;;;;;;;8.20;7.40;;;15.10;99.90;;;;;;5420687;26;20003;-89
2024/04/12 04:11:55;;;;;;;8.00;7.30;;;15.10;99.90;;;;;;5423345;26;19999;-90
2024/04/12 04:14:32;;;;;;;7.35;6.65;;;15.20;99.90;;;;;;5437812;26;19999;-89
2024/04/12 04:17:09;;;;;;;8.20;7.40;;;15.10;99.90;;;;;;5442651;26;19983;-91
2024/04/12 04:19:35;;;;;;;8.68;7.45;;;15.20;99.90;;;;;;5443280;26;19983;-89
2024/04/12 04:24:56;;;;;;;7.65;6.95;;;15.20;99.90;;;;;;5427821;26;20050;-89
2024/04/12 04:27:23;;;;;;;7.90;7.10;;;15.20;99.90;;;;;;5422717;26;19995;-89
2024/04/12 04:29:51;;;;;;;8.60;7.40;;;15.20;99.90;;;;;;5426163;26;20008;-90
2024/04/12 04:32:26;;;;;;;8.57;7.55;;;15.20;99.90;;;;;;5420160;26;20030;-88
2024/04/12 04:35:04;;;;;;;7.40;6.70;;;15.20;99.90;;;;;;5418909;26;19999;-89
2024/04/12 04:37:34;;;;;;;8.13;7.32;;;15.30;99.90;;;;;;5419073;26;20451;-89
2024/04/12 04:40:09;;;;;;;8.32;7.53;;;15.20;99.90;;;;;;5419542;26;19991;-89
2024/04/12 04:42:37;;;;;;;7.53;6.82;;;15.20;99.90;;;;;;5419788;26;20061;-89
2024/04/12 04:45:07;;;;;;;8.52;7.53;;;15.20;99.90;;;;;;5419683;26;19992;-89
2024/04/12 04:47:39;;;;;;;7.95;7.15;;;15.20;99.90;;;;;;5420074;26;20006;-92
2024/04/12 04:50:08;;;;;;;7.50;6.80;;;15.10;99.90;;;;;;5419682;26;20010;-89
2024/04/12 04:52:38;;;;;;;6.95;6.30;;;15.10;99.90;;;;;;5418919;26;19992;-88
2024/04/12 04:55:06;;;;;;;8.07;7.15;;;15.10;99.90;;;;;;5418706;26;20016;-86
2024/04/12 04:57:35;;;;;;;7.75;6.63;;;15.10;99.90;;;;;;5388968;26;20023;-88
2024/04/12 05:00:06;;;;;;;7.15;6.45;;;15.10;99.90;;;;;;5420604;26;20010;-88
2024/04/12 05:02:35;;;;;;;7.68;6.88;;;15.10;99.90;;;;;;5419232;26;20305;-88
2024/04/12 05:05:06;;;;;;;7.75;7.05;;;15.10;99.90;;;;;;5423220;26;19998;-88
2024/04/12 05:07:35;;;;;;;7.22;6.53;;;15.10;99.90;;;;;;5433022;26;20002;-89
2024/04/12 05:10:09;;;;;;;7.80;7.00;;;15.10;99.90;;;;;;5436822;26;20041;-88
2024/04/12 05:12:40;;;;;;;7.18;6.18;;;15.10;99.90;;;;;;5429972;26;20037;-88
2024/04/12 05:15:48;;;;;;;7.10;6.38;;;15.10;99.90;;;;;;5432128;26;20002;-87
2024/04/12 05:18:03;;;;;;;7.22;6.53;;;15.10;99.90;;;;;;5429580;26;19992;-88
2024/04/12 05:20:40;;;;;;;6.53;5.93;;;15.10;99.90;;;;;;5428492;26;20109;-90
2024/04/12 05:23:14;;;;;;;8.15;6.25;;;15.20;99.90;;;;;;5422904;26;20328;-89
2024/04/12 05:25:44;;;;;;;7.70;6.53;;;15.10;99.90;;;;;;5418947;26;20003;-89
2024/04/12 05:28:12;;;;;;;7.28;6.57;;;15.20;99.90;;;;;;5419505;26;20003;-89
2024/04/12 05:30:41;;;;;;;7.88;7.07;;;15.20;99.90;;;;;;5420614;26;20332;-88
2024/04/12 05:33:08;;;;;;;7.75;6.43;;;15.20;99.90;;;;;;5418235;26;19992;-88
2024/04/12 05:35:35;;;;;;;7.35;6.63;;;15.30;99.90;;;;;;5419064;26;19996;-89
2024/04/12 05:38:07;;;;;;;8.48;7.63;;;15.30;99.90;;;;;;5417867;26;19987;-90
2024/04/12 05:40:57;;;;;;;7.95;6.65;;;15.30;99.90;;;;;;5418597;26;19999;-91
2024/04/12 05:43:25;;;;;;;7.57;6.68;;;15.30;99.90;;;;;;5420625;26;20008;-89
2024/04/12 05:45:51;;;;;;;7.00;6.30;;;15.30;99.90;;;;;;5418847;26;20050;-89
2024/04/12 05:48:17;;;;;;;8.43;5.90;;;15.30;99.90;;;;;;5418263;26;20007;-89
2024/04/12 05:50:48;;;;;;;7.82;7.03;;;15.40;99.90;;;;;;5420295;26;19999;-89
2024/04/12 05:53:15;;;;;;;6.95;5.40;;;15.40;99.90;;;;;;5420503;26;19992;-89
2024/04/12 05:55:45;;;;;;;6.55;5.70;;;15.40;99.90;;;;;;5441066;26;19987;-89
2024/04/12 05:58:16;;;;;;;6.50;5.72;;;15.50;99.90;;;;;;5412180;26;19980;-87
2024/04/12 06:00:42;;;;;;;;;;;15.50;99.90;;;;;;5440608;26;19992;-88
2024/04/12 06:03:14;;;;;;;7.25;5.80;;;15.60;99.90;;;;;;5438840;26;19925;-86
2024/04/12 06:05:41;;;;;;;6.85;5.75;;;15.60;99.90;;;;;;5420423;26;19988;-87
2024/04/12 06:08:09;;;;;;;6.35;5.60;;;15.60;99.90;;;;;;5417686;26;20007;-90
2024/04/12 06:10:44;;;;;;;6.93;6.03;;;15.70;99.90;;;;;;5417271;26;20002;-88
2024/04/12 06:13:20;;;;;;;8.30;6.55;;;15.70;99.90;;;;;;5416917;26;20319;-89
2024/04/12 06:15:48;;;;;;;8.68;6.40;;;15.70;99.90;;;;;;5389329;26;19995;-90
2024/04/12 06:18:16;;;;;;;7.45;6.38;;;15.70;99.90;;;;;;5417926;26;19992;-89
2024/04/12 06:20:44;;;;;;;7.75;6.18;;;15.70;99.90;;;;;;5419316;26;20003;-90
2024/04/12 06:23:19;;;;;;;6.82;5.90;;;15.70;99.90;;;;;;5419545;26;20435;-88
2024/04/12 06:25:45;;;;;;;8.80;6.60;;;15.70;99.90;;;;;;5419103;26;20021;-88
2024/04/12 06:28:15;;;;;;;7.32;6.63;;;15.70;99.90;;;;;;5417261;26;20003;-89
2024/04/12 06:30:41;;;;;;;8.18;7.35;;;15.80;99.90;;;;;;5418182;26;20010;-89
2024/04/12 06:33:07;;;;;;;8.05;6.95;;;15.80;99.90;;;;;;5417422;26;20007;-93
2024/04/12 06:35:33;;;;;;;8.75;7.55;;;15.80;99.90;;;;;;5417292;26;19988;-88
2024/04/12 06:38:00;;;;;;;10.57;7.90;;;15.80;99.90;;;;;;5417315;26;20069;-88
2024/04/12 06:40:28;;;;;;;9.60;7.30;;;15.80;99.90;;;;;;5418685;26;20431;-89
2024/04/12 06:42:55;;;;;;;8.85;7.93;;;15.80;99.90;;;;;;5388464;26;20081;-89
2024/04/12 06:45:21;;;;;;;8.77;7.72;;;15.90;99.90;;;;;;5418447;26;20457;-88
2024/04/12 06:47:48;;;;;;;8.75;7.85;;;15.90;99.90;;;;;;5418154;26;20069;-89
2024/04/12 06:50:14;;;;;;;11.00;8.52;;;15.90;99.90;;;;;;5418898;26;20419;-88
2024/04/12 06:52:44;;;;;;;8.85;7.88;;;16.00;99.90;;;;;;5416805;26;20003;-89
2024/04/12 06:55:14;;;;;;;10.27;8.25;;;16.00;99.90;;;;;;5418479;26;20446;-89
2024/04/12 06:57:44;;;;;;;11.05;8.23;;;16.10;99.90;;;;;;5417660;26;20439;-89
2024/04/12 07:00:20;;;;;;;9.98;8.45;;;16.10;99.90;;;;;;5417573;26;19999;-88
2024/04/12 07:02:48;;;;;;;10.90;8.38;;;16.10;99.90;;;;;;5418954;26;19996;-89
2024/04/12 07:05:15;;;;;;;10.55;8.40;;;16.20;99.90;;;;;;5417348;26;19992;-91
2024/04/12 07:07:42;;;;;;;7.90;7.10;;;16.20;99.90;;;;;;5417540;26;20006;-89
2024/04/12 07:10:09;;;;;;;10.40;8.13;;;16.20;99.90;;;;;;5417353;26;19991;-89
2024/04/12 07:12:37;;;;;;;8.68;7.78;;;16.20;99.90;;;;;;5418981;26;20000;-89
2024/04/12 07:15:09;;;;;;;9.18;7.63;;;16.30;99.90;;;;;;5417187;26;20505;-91
2024/04/12 07:17:39;;;;;;;10.07;8.38;;;16.30;99.90;;;;;;5416735;26;19999;-91
2024/04/12 07:20:08;;;;;;;9.80;7.93;;;16.30;99.90;;;;;;5417717;26;19992;-90
2024/04/12 07:22:34;;;;;;;10.50;8.32;;;16.30;99.90;;;;;;5419242;26;20000;-89
2024/04/12 07:25:07;;;;;;;10.02;8.45;;;16.30;99.90;;;;;;5417480;26;19996;-89
2024/04/12 07:27:40;;;;;;;9.77;7.85;;;16.30;99.90;;;;;;5417859;26;19999;-90
2024/04/12 07:30:11;;;;;;;9.18;7.80;;;16.20;99.90;;;;;;5419808;26;20064;-89
2024/04/12 07:32:36;;;;;;;9.40;7.82;;;16.30;99.90;;;;;;5428669;26;20496;-89
2024/04/12 07:35:22;;;;;;;9.07;7.40;;;16.30;99.90;;;;;;5432830;26;19991;-89
2024/04/12 07:37:48;;;;;;;9.65;7.57;;;16.20;99.90;;;;;;5438655;26;19995;-90
2024/04/12 07:40:18;;;;;;;10.18;8.35;;;16.30;99.90;;;;;;5407738;26;19999;-88
2024/04/12 07:42:48;;;;;;;9.87;8.00;;;16.30;99.90;;;;;;5436099;26;19980;-90
2024/04/12 07:45:29;;;;;;;10.05;8.15;;;16.30;99.90;;;;;;5425004;26;20257;-90
2024/04/12 07:48:11;;;;;;;9.95;8.05;;;16.30;99.90;;;;;;5419135;26;20044;-92
2024/04/12 07:50:39;;;;;;;10.25;7.97;;;16.20;99.90;;;;;;5418830;26;20000;-88
2024/04/12 07:56:08;;;;;;;10.35;7.93;;;16.30;99.90;;;;;;5425046;26;20011;-89
2024/04/12 07:58:40;;;;;;;9.98;7.72;;;16.40;99.90;;;;;;5419681;26;19988;-90
2024/04/12 08:01:15;;;;;;;13.60;7.15;;;16.40;99.90;;;;;;5421195;26;20416;-89
2024/04/12 08:03:50;;;;;;;9.38;7.57;;;16.40;99.90;;;;;;5419579;26;20010;-90
2024/04/12 08:06:19;;;;;;;9.13;7.25;;;16.50;99.90;;;;;;5421853;26;20002;-89
2024/04/12 08:09:03;;;;;;;10.52;8.25;;;16.50;99.90;;;;;;5420782;26;19996;-89
2024/04/12 08:11:35;;;;;;;11.20;7.45;;;16.60;99.90;;;;;;5419519;26;19996;-89
2024/04/12 08:14:08;;;;;;;10.35;7.63;;;16.60;99.90;;;;;;5421537;26;19995;-89
2024/04/12 08:16:39;;;;;;;10.32;6.90;;;16.60;99.90;;;;;;5420615;26;19996;-88
2024/04/12 08:19:12;;;;;;;9.43;7.22;;;16.70;99.90;;;;;;5418690;26;19997;-88
2024/04/12 08:21:41;;;;;;;9.20;7.07;;;16.80;99.90;;;;;;5418549;26;20014;-89
2024/04/12 08:24:14;;;;;;;8.50;7.05;;;16.80;99.90;;;;;;5418667;26;20007;-88
2024/04/12 08:26:47;;;;;;;9.50;6.88;;;16.90;99.90;;;;;;5418526;26;20003;-89
2024/04/12 08:29:29;;;;;;;8.55;6.93;;;16.90;99.90;;;;;;5418843;26;19991;-87
2024/04/12 08:34:36;;;;;;;7.70;6.47;;;16.90;99.90;;;;;;5420438;26;19996;-87
2024/04/12 08:37:12;;;;;;;12.80;7.93;;;16.90;99.90;;;;;;5418096;26;20312;-88
2024/04/12 08:39:43;;;;;;;7.82;6.97;;;17.00;99.90;;;;;;5419941;26;20060;-88
2024/04/12 08:42:10;;;;;;;8.40;6.88;;;17.00;99.90;;;;;;5419840;26;20010;-89
2024/04/12 08:44:37;;;;;;;8.57;7.35;;;17.00;99.90;;;;;;5418131;26;19998;-88
2024/04/12 08:47:51;;;;;;;10.48;7.30;;;17.10;99.90;;;;;;5417845;26;20006;-88
2024/04/12 08:50:31;;;;;;;8.50;7.03;;;17.20;99.90;;;;;;5418570;26;19991;-89
2024/04/12 08:52:58;;;;;;;9.18;7.55;;;17.20;99.90;;;;;;5419864;26;20007;-87
2024/04/12 08:55:30;;;;;;;9.85;6.85;;;17.20;99.90;;;;;;5418133;26;20003;-88
2024/04/12 08:58:08;;;;;;;10.55;7.28;;;17.20;99.90;;;;;;5418455;26;20369;-88
2024/04/12 09:00:38;;;;;;;9.07;7.28;;;17.20;99.90;;;;;;5418542;26;19999;-88
2024/04/12 09:03:35;;;;;;;10.57;7.30;;;17.30;99.90;;;;;;5418635;26;20006;-87
2024/04/12 09:06:14;;;;;;;;;;;;;;;;;;;;;
2024/04/12 09:08:44;;;;;;;9.90;6.93;;;17.30;99.90;;;;;;5419651;26;20003;-86
2024/04/12 09:11:11;;;;;;;9.00;6.80;;;17.30;99.90;;;;;;5418222;26;20490;-89
2024/04/12 09:13:39;;;;;;;8.13;6.15;;;17.40;99.90;;;;;;5420340;26;20009;-87
2024/04/12 09:16:07;;;;;;;9.65;7.03;;;17.40;99.90;;;;;;5425369;26;20002;-86
2024/04/12 09:18:37;;;;;;;7.35;5.95;;;17.50;99.90;;;;;;5436269;26;20324;-87
2024/04/12 09:21:05;;;;;;;7.65;5.97;;;17.50;99.90;;;;;;5439101;26;19996;-88
2024/04/12 09:23:41;;;;;;;7.50;5.55;;;17.60;99.90;;;;;;5436597;26;20037;-88
2024/04/12 09:26:22;;;;;;;10.45;5.93;;;17.60;99.90;;;;;;5403354;26;19991;-88
2024/04/12 09:28:51;;;;;;;8.23;5.47;;;17.70;99.90;;;;;;5431756;26;20049;-87
2024/04/12 09:34:29;;;;;;;8.32;6.10;;;17.80;99.90;;;;;;5420179;26;20036;-88
2024/04/12 09:37:28;;;;;;;8.35;6.38;;;17.90;99.90;;;;;;5417586;26;19994;-88
2024/04/12 09:42:28;;;;;;;8.32;5.65;;;18.00;99.90;;;;;;5419132;26;20451;-87
2024/04/12 09:45:00;;;;;;;8.30;5.45;;;18.00;99.90;;;;;;5417525;26;20457;-89
2024/04/12 10:37:29;;;;;;;10.45;5.78;;;18.90;99.90;;;;;;5419397;26;20010;-89
2024/04/12 10:39:58;;;;;;;9.10;5.45;;;18.90;99.90;;;;;;5418458;26;19999;-89
2024/04/12 10:42:30;;;;;;;9.43;5.53;;;18.90;99.90;;;;;;5419395;26;20010;-90
2024/04/12 10:45:01;;;;;;;9.50;5.20;;;19.00;99.90;;;;;;5419198;26;19987;-90
2024/04/12 10:47:28;;;;;;;;;;;19.00;99.90;;;;;;5420661;26;20450;-90
2024/04/12 10:50:08;;;;;;;;;;;;;;;;;;;;;
2024/04/12 10:52:34;;;;;;;9.30;5.20;;;19.10;99.90;;;;;;5421201;26;20001;-89
2024/04/12 10:55:11;;;;;;;6.57;4.80;;;19.10;99.90;;;;;;5422504;26;20000;-87
2024/04/12 10:57:43;;;;;;;7.97;4.90;;;19.20;99.90;;;;;;5420248;26;19991;-88
2024/04/12 11:00:27;;;;;;;7.35;4.88;;;19.30;99.90;;;;;;5423121;26;20160;-90
2024/04/12 11:02:59;;;;;;;7.85;4.78;;;19.30;99.90;;;;;;5428997;26;20004;-88
2024/04/12 11:05:39;;;;;;;6.70;4.30;;;19.40;99.90;;;;;;5433349;26;19999;-86
2024/04/12 11:08:06;;;;;;;4.72;3.53;;;19.40;99.90;;;;;;5440324;26;19987;-86
2024/04/12 11:10:38;;;;;;;7.07;4.45;;;19.50;99.90;;;;;;5410977;26;19984;-85
2024/04/12 11:13:08;;;;;;;6.28;4.20;;;19.60;99.90;;;;;;5440154;26;19999;-86
2024/04/12 11:31:59;;;;;;;7.43;4.07;;;20.00;99.90;;;;;;5419978;26;20403;-88
2024/04/12 11:34:32;;;;;;;6.05;4.15;;;20.00;99.90;;;;;;5420106;26;20002;-89
2024/04/12 11:37:08;;;;;;;7.63;4.20;;;20.00;99.90;;;;;;5421727;26;20006;-87
2024/04/12 11:39:38;;;;;;;4.68;3.28;;;19.90;99.90;;;;;;5419659;26;19991;-88
2024/04/12 11:42:05;;;;;;;7.63;3.88;;;19.90;99.90;;;;;;5421108;26;20398;-87
2024/04/12 11:44:35;;;;;;;5.68;3.65;;;19.80;99.90;;;;;;5418983;26;20007;-88
2024/04/12 11:47:05;;;;;;;7.13;3.63;;;19.80;99.90;;;;;;5419533;26;20008;-91
2024/04/12 11:49:42;;;;;;;4.55;3.25;;;19.90;99.90;;;;;;5419237;26;19993;-88
2024/04/12 11:52:18;;;;;;;6.93;3.78;;;19.90;99.90;;;;;;5419715;26;19995;-89
2024/04/12 11:54:52;;;;;;;5.32;3.28;;;20.00;99.90;;;;;;5392872;26;20020;-87
2024/04/12 11:57:22;;;;;;;6.57;3.60;;;20.00;99.90;;;;;;5419562;26;20003;-89
2024/04/12 11:59:52;;;;;;;6.60;3.63;;;20.10;99.90;;;;;;5418997;26;19996;-88
2024/04/12 12:02:18;;;;;;;7.57;3.55;;;20.10;99.90;;;;;;5418318;26;19988;-89
2024/04/12 12:04:45;;;;;;;5.95;3.25;;;20.20;99.90;;;;;;5419074;26;20305;-90
2024/04/12 12:07:11;;;;;;;5.78;3.38;;;20.20;99.90;;;;;;5419967;26;20090;-88
2024/04/12 12:09:37;;;;;;;6.50;4.00;;;20.20;99.90;;;;;;5420778;26;20007;-87
2024/04/12 12:12:10;;;;;;;4.93;3.10;;;20.30;99.90;;;;;;5420091;26;19992;-88
2024/04/12 12:14:36;;;;;;;5.70;3.67;;;20.20;99.90;;;;;;5419086;26;20006;-87
2024/04/12 12:17:05;;;;;;;6.55;3.33;;;20.20;99.60;;;;;;5418856;26;19996;-89
2024/04/12 12:19:32;;;;;;;4.72;3.55;;;20.20;99.50;;;;;;5419092;26;20419;-87
2024/04/12 12:22:02;;;;;;;3.85;3.08;;;20.20;99.60;;;;;;5418425;26;19996;-87
2024/04/12 12:24:37;;;;;;;5.18;3.28;;;20.30;99.60;;;;;;5419278;26;20068;-89
2024/04/12 12:27:08;;;;;;;5.20;2.90;;;20.30;99.70;;;;;;5420317;26;19995;-88
2024/04/12 12:29:37;;;;;;;5.85;3.55;;;20.30;99.80;;;;;;5419070;26;19992;-88
2024/04/12 12:32:04;;;;;;;5.97;3.70;;;20.40;99.80;;;;;;5417930;26;20002;-88
2024/04/12 12:34:33;;;;;;;5.05;3.13;;;20.40;99.70;;;;;;5388502;26;20007;-88
2024/04/12 12:36:59;;;;;;;6.47;3.53;;;20.40;99.70;;;;;;5418753;26;19992;-88
2024/04/12 12:39:30;;;;;;;6.55;3.80;;;20.40;99.70;;;;;;5417849;26;20020;-87
2024/04/12 12:42:02;;;;;;;5.07;3.40;;;20.40;99.60;;;;;;5390723;26;19995;-88
2024/04/12 12:44:28;;;;;;;4.50;3.42;;;20.40;99.60;;;;;;5418210;26;19988;-89
2024/04/12 12:47:02;;;;;;;5.13;3.45;;;20.40;99.60;;;;;;5419283;26;20037;-87
2024/04/12 12:49:33;;;;;;;4.35;3.00;;;20.50;99.50;;;;;;5419193;26;20007;-88
2024/04/12 12:51:59;;;;;;;4.28;2.88;;;20.50;99.50;;;;;;5421238;26;19995;-87
2024/04/12 12:54:27;;;;;;;3.88;2.90;;;20.50;99.50;;;;;;5421851;26;20509;-89
2024/04/12 12:56:57;;;;;;;5.28;2.90;;;20.50;99.50;;;;;;5436145;26;20046;-86
2024/04/12 12:59:22;;;;;;;3.35;2.20;;;20.50;99.50;;;;;;5441253;26;20002;-86
2024/04/12 13:01:48;;;;;;;6.40;3.10;;;20.50;99.60;;;;;;5440339;26;19987;-85
2024/04/12 13:04:19;;;;;;;3.38;2.33;;;20.50;99.50;;;;;;5408799;26;19999;-84
2024/04/12 13:06:45;;;;;;;4.10;2.28;;;20.50;99.60;;;;;;5434367;26;19992;-88
2024/04/12 13:09:16;;;;;;;4.78;2.90;;;20.60;99.70;;;;;;5418800;26;20010;-90
2024/04/12 13:11:42;;;;;;;3.78;2.83;;;20.70;99.70;;;;;;5418944;26;20003;-88
2024/04/12 13:14:10;;;;;;;4.60;3.40;;;20.70;99.60;;;;;;5418010;26;20006;-87
2024/04/12 13:16:41;;;;;;;7.15;3.75;;;20.70;99.60;;;;;;5417617;26;19996;-88
2024/04/12 13:19:08;;;;;;;6.35;3.40;;;20.70;99.50;;;;;;5419100;26;20082;-87
2024/04/12 13:21:34;;;;;;;5.85;3.10;;;20.70;99.50;;;;;;5417790;26;20357;-89
2024/04/12 13:24:00;;;;;;;6.18;3.22;;;20.70;99.50;;;;;;5388424;26;19999;-88
2024/04/12 13:26:31;;;;;;;6.25;3.30;;;20.80;99.50;;;;;;5417890;26;20356;-86
2024/04/12 13:29:00;;;;;;;7.18;3.47;;;20.80;99.20;;;;;;5417616;26;19995;-85
2024/04/12 13:31:39;;;;;;;6.30;4.05;;;20.70;99.00;;;;;;5417906;26;20039;-88
2024/04/12 13:34:09;;;;;;;4.85;3.25;;;20.70;98.90;;;;;;5389560;26;19992;-89
2024/04/12 13:36:53;;;;;;;6.57;3.57;;;20.60;98.90;;;;;;5419469;26;20348;-87
2024/04/12 13:39:27;;;;;;;4.22;3.03;;;20.60;99.00;;;;;;5416682;26;19991;-87
2024/04/12 13:42:03;;;;;;;4.45;3.13;;;20.60;99.00;;;;;;5417008;26;20028;-87
2024/04/12 13:52:47;;;;;;;4.18;3.00;;;20.70;98.90;;;;;;5418807;26;20068;-87
2024/04/12 13:55:24;;;;;;;;;;;;;;;;;;;;;
2024/04/12 13:57:52;;;;;;;4.25;2.97;;;20.70;98.80;;;;;;5418664;26;19988;-85
2024/04/12 14:00:36;;;;;;;;;;;;;;;;;;;;;
2024/04/12 14:03:06;;;;;;;5.00;2.90;;;20.70;98.90;;;;;;5419667;26;20002;-86
2024/04/12 14:05:36;;;;;;;4.03;2.72;;;20.80;98.90;;;;;;5417520;26;20373;-86
2024/04/12 14:08:09;;;;;;;5.20;3.47;;;20.80;99.00;;;;;;5416933;26;19991;-86
2024/04/12 14:10:43;;;;;;;5.85;3.63;;;20.90;98.90;;;;;;5417529;26;19995;-86
2024/04/12 14:13:17;;;;;;;6.55;4.32;;;20.90;98.90;;;;;;5417420;26;20037;-87
2024/04/12 14:21:59;;;;;;;4.40;3.33;;;21.10;99.00;;;;;;5489256;26;19994;-89
2024/04/12 14:27:12;;;;;;;4.57;3.38;;;21.20;99.00;;;;;;5454809;26;20002;-86
2024/04/12 14:29:40;;;;;;;6.00;3.80;;;21.20;98.90;;;;;;5444580;26;20438;-87
2024/04/12 14:32:07;;;;;;;6.70;3.47;;;21.20;98.70;;;;;;5446928;26;19990;-86
2024/04/12 14:34:33;;;;;;;5.93;3.35;;;21.10;98.70;;;;;;5452507;26;20007;-87
2024/04/12 14:37:03;;;;;;;5.97;3.58;;;21.10;98.60;;;;;;5457198;26;20013;-86
2024/04/12 14:39:29;;;;;;;8.23;3.53;;;21.10;98.70;;;;;;5457429;26;20458;-87
2024/04/12 14:42:03;;;;;;;4.47;3.03;;;21.10;98.80;;;;;;5460269;26;20017;-87
2024/04/12 14:44:40;;;;;;;5.38;2.90;;;21.20;98.80;;;;;;5498440;26;20005;-86
2024/04/12 14:47:06;;;;;;;7.18;3.83;;;21.20;98.70;;;;;;5482797;26;19994;-88
2024/04/12 14:49:32;;;;;;;4.13;2.88;;;21.20;98.60;;;;;;5446521;26;19990;-86
2024/04/12 14:52:00;;;;;;;5.68;2.90;;;21.20;98.70;;;;;;5446824;26;19998;-86
2024/04/12 14:54:32;;;;;;;4.10;3.00;;;21.20;98.70;;;;;;5504755;26;19994;-86